x

Central Caribbean - 210 Nm Sse Of Kingston, Jamaica (42058) Wave Buoy

4:50 - Sat 23rd Jul 2016 All times are EST. -5 hours from GMT.

  • Sig Wave height 4.9ft
  • Swell Direction
  • Peak Period 8s
  • Average Period 5s
  • Wind
    18mph, 20mph gusts
  • Sea Temp 84°f
  • Aire Temp 84°f
  • Sea Pressure 1012.4mb
  • Central Caribbean - 210 Nm Sse Of Kingston, Jamaica
  • Central Caribbean - 210 Nm Sse Of Kingston, Jamaica

More Historic Weather Station data

Upgrade to MSW Pro to gain access to the past 30 days of data for over 8000 Wavebouys and Weather Stations around the globe.

Join Pro

Comparision Forecast

View Surf forecast
   
sáb 07/23 4:50 5ft 8s 5s 18 20 mph 1012.4mb 84f 84f
3:50 5ft 7s 5s 18 22 mph 1012.5mb 84f 84f
2:50 5.5ft 7s 5s 16 18 mph 1012.9mb 84f 84f
1:50 5.5ft 7s 5s 20 22 mph 1013.5mb 84f 84f
12:50 5.5ft 7s 5s 20 25 mph 1014.2mb 84f 84f
11:50 6ft 8s 5s 22 27 mph 1014.4mb 84f 84f
10:50 6ft 8s  -  22 25 mph 1014.6mb 84f 84f
9:50 6ft 8s 5s 22 27 mph 1014.9mb 84f 84f
8:50 6ft 8s 5s 22 25 mph 1014.9mb 84f 84f
7:50 6ft 7s 5s 20 25 mph 1014.4mb 84f 84f
6:50 6ft 8s 5s 20 25 mph 1013.7mb 84f 83f
5:50 6ft 7s 5s 22 25 mph 1013mb 84f 83f
4:50 6ft 7s 5s 22 27 mph 1012.7mb 84f 83f
3:50 6.5ft 7s 5s 22 25 mph 1012.9mb 84f 83f
2:50 6.5ft 8s 5s 22 25 mph 1012.5mb 84f 83f
1:50 6.5ft 8s 5s 22 25 mph 1012.4mb 84f 83f
12:50 7ft 7s 5s 22 25 mph 1012.8mb 84f 84f
vie 07/22 11:50 7ft 7s 5s 22 27 mph 1013mb 84f 84f
10:50 7ft 7s 5s 25 31 mph 1013.2mb 84f 84f
9:50 7.5ft 7s 5s 25 29 mph 1013.1mb 84f 84f
8:50 7ft 7s 5s 25 29 mph 1012.5mb 84f 84f
7:50 7ft 7s 5s 27 31 mph 1012.1mb 84f 84f
6:50 7ft 7s 5s 25 29 mph 1011.8mb 84f 84f
5:50 7ft 7s 5s 25 29 mph 1011.8mb 84f 84f
4:50 6.5ft 7s 5s 25 29 mph 1011.9mb 84f 84f
3:50 7ft 7s 5s 25 29 mph 1012.4mb 84f 84f
2:50 6.5ft 6s 5s 27 31 mph 1012.9mb 84f 84f
1:50 7ft 7s 5s 25 29 mph 1013.7mb 84f 84f
12:50 6.5ft 7s 5s 25 29 mph 1014.2mb 84f 84f
11:50 7ft 7s 5s 22 29 mph 1014.5mb 84f 84f
10:50 6ft 7s 5s 25 29 mph 1014.8mb 84f 84f
9:50 6.5ft 7s 5s 25 29 mph 1014.7mb 84f 84f
8:50 6.5ft 6s 5s 25 31 mph 1014.3mb 84f 84f
7:50 6ft 6s 5s 25 29 mph 1014mb 84f 84f
6:50 6.5ft 7s 5s 25 29 mph 1013.6mb 84f 84f
5:50 6ft 7s 5s 25 27 mph 1013.3mb 84f 84f
4:50 6.5ft 7s 5s 25 29 mph 1012.8mb 84f 84f
3:50 6ft 6s 5s 25 29 mph 1012.6mb 84f 84f
2:50 6ft 5s 5s 22 29 mph 1011.9mb 84f 83f
1:50 5.5ft 7s 5s 25 29 mph 1012.2mb 84f 83f
12:50 6ft 5s 5s 22 27 mph 1012.8mb 84f 83f
jue 07/21 11:50 5ft 6s 5s 22 27 mph 1013.7mb 84f 84f
10:50 5ft 7s 5s 25 29 mph 1014.1mb 84f 84f
9:50 5ft 8s 5s 22 27 mph 1014.6mb 84f 84f
8:50 5ft 8s 5s 20 25 mph 1014.1mb 84f 84f
7:50 5.5ft 7s 5s 20 25 mph 1013.7mb 84f 84f
6:50 5ft 7s 5s 22 27 mph 1013.1mb 84f 84f
5:50 5ft 8s 5s 18 22 mph 1012.3mb 84f 84f
4:50 5.5ft 8s 5s 20 22 mph 1012.1mb 84f 84f
3:50 5.5ft 7s 5s 20 25 mph 1012.6mb 84f 84f
2:50 5ft 8s 5s 20 25 mph 1013.2mb 84f 84f
1:50 5.5ft 8s 5s 18 22 mph 1013.7mb 84f 84f
12:50 6ft 7s 5s 18 22 mph 1013.8mb 84f 84f
11:50 5.5ft 7s 5s 22 25 mph 1014.1mb 84f 84f
10:50 5.5ft 7s 5s 22 27 mph 1014.5mb 84f 84f
9:50 5ft 7s 5s 20 25 mph 1014.3mb 84f 84f
8:50 6ft 7s 5s 20 22 mph 1014.2mb 84f 84f
7:50 5ft 7s 5s 18 20 mph 1014mb 84f 84f
6:50 5.5ft 7s 5s 22 25 mph 1013.8mb 84f 83f
5:50 5ft 7s 5s 22 27 mph 1013.1mb 84f 83f
4:50 5.5ft 6s 5s 22 27 mph 1012.8mb 84f 83f
3:50 5ft 7s 5s 20 25 mph 1013.1mb 84f 83f
2:50 5ft 6s 5s 20 22 mph 1013.2mb 84f 83f
1:50 5ft 7s 5s 22 25 mph 1013.3mb 84f 83f
12:50 5ft 6s 4s 22 25 mph 1013.8mb 84f 83f
mié 07/20 11:50 4.5ft 5s 5s 22 27 mph 1014.3mb 84f 84f
10:50 4.5ft 7s 5s 20 25 mph 1015mb 84f 84f
9:50 4.5ft 7s 5s 20 25 mph 1014.7mb 84f 83f
8:50 4.5ft 6s 4s 20 27 mph 1014.2mb 84f 83f
7:50 4.5ft 6s 4s 18 22 mph 1013.8mb 84f 83f
6:50 4.5ft 6s 5s 18 20 mph 1013.3mb 84f 84f
5:50 4.5ft 7s 5s 18 22 mph 1013mb 84f 84f
4:50 4.5ft 6s 5s 18 22 mph 1012.9mb 84f 84f
3:50 4.5ft 6s 4s 20 22 mph 1012.9mb 84f 84f
1:50 4.5ft 6s 4s 18 22 mph 1013.2mb 84f 83f
12:50 4.5ft 6s 5s 20 22 mph 1013.7mb 84f 83f
11:50 4.5ft 6s 5s 18 20 mph 1014.1mb 84f 83f
10:50 4.5ft 6s 4s 20 25 mph 1014.7mb 84f 83f
9:50 4.5ft 7s 4s 22 27 mph 1014.9mb 84f 84f
8:50 4.5ft 5s 4s 20 25 mph 1015mb 84f 84f
7:50 4.5ft 6s 4s 18 22 mph 1014.6mb 84f 83f
6:50 4ft 5s 4s 22 25 mph 1014.2mb 84f 83f
5:50 4.5ft 6s 4s 20 25 mph 1013.9mb 84f 83f
4:50 4.5ft 6s 4s 20 25 mph 1013.6mb 84f 83f
3:50 4.5ft 6s 5s 20 25 mph 1013.3mb 84f 83f
2:50 4.5ft 6s 4s 20 22 mph 1013.1mb 84f 83f
1:50 4ft 7s 4s 18 22 mph 1013.4mb 84f 83f
12:50 4ft 6s 4s 20 22 mph 1014mb 84f 83f
mar 07/19 11:50 4ft 6s 4s 20 22 mph 1014.5mb 84f 83f